sensor_id;sensor_type;location;lat;lon;timestamp;pressure;altitude;pressure_sealevel;temperature;humidity
77027;BME280;65956;52.986;17.490;2024-03-23T03:01:49;99289.98;;;6.23;100.00
77027;BME280;65956;52.986;17.490;2024-03-23T03:04:15;99289.38;;;6.24;100.00
77027;BME280;65956;52.986;17.490;2024-03-23T03:06:41;99283.70;;;6.26;100.00
77027;BME280;65956;52.986;17.490;2024-03-23T03:09:07;99279.80;;;6.28;100.00
77027;BME280;65956;52.986;17.490;2024-03-23T03:11:34;99273.98;;;6.30;100.00
77027;BME280;65956;52.986;17.490;2024-03-23T03:14:00;99272.96;;;6.30;100.00
77027;BME280;65956;52.986;17.490;2024-03-23T03:16:26;99268.60;;;6.29;100.00
77027;BME280;65956;52.986;17.490;2024-03-23T03:18:52;99268.98;;;6.28;100.00
77027;BME280;65956;52.986;17.490;2024-03-23T03:21:19;99268.59;;;6.28;100.00
77027;BME280;65956;52.986;17.490;2024-03-23T03:23:45;99269.65;;;6.27;100.00
77027;BME280;65956;52.986;17.490;2024-03-23T03:26:11;99269.02;;;6.26;100.00
77027;BME280;65956;52.986;17.490;2024-03-23T03:28:37;99264.36;;;6.27;100.00
77027;BME280;65956;52.986;17.490;2024-03-23T03:31:03;99259.42;;;6.29;100.00
77027;BME280;65956;52.986;17.490;2024-03-23T03:33:29;99257.38;;;6.29;100.00
77027;BME280;65956;52.986;17.490;2024-03-23T03:35:55;99246.17;;;6.30;100.00
77027;BME280;65956;52.986;17.490;2024-03-23T03:38:22;99245.23;;;6.32;100.00
77027;BME280;65956;52.986;17.490;2024-03-23T03:40:48;99241.19;;;6.30;100.00
77027;BME280;65956;52.986;17.490;2024-03-23T03:43:14;99238.89;;;6.31;100.00
77027;BME280;65956;52.986;17.490;2024-03-23T03:45:40;99234.55;;;6.31;100.00
77027;BME280;65956;52.986;17.490;2024-03-23T03:48:06;99238.70;;;6.32;100.00
77027;BME280;65956;52.986;17.490;2024-03-23T03:50:33;99239.58;;;6.33;100.00
77027;BME280;65956;52.986;17.490;2024-03-23T03:52:59;99245.37;;;6.35;100.00
77027;BME280;65956;52.986;17.490;2024-03-23T03:55:25;99250.83;;;6.35;100.00
77027;BME280;65956;52.986;17.490;2024-03-23T03:57:51;99251.54;;;6.34;100.00
77027;BME280;65956;52.986;17.490;2024-03-23T04:00:17;99250.09;;;6.33;100.00
77027;BME280;65956;52.986;17.490;2024-03-23T04:02:43;99249.50;;;6.31;100.00
77027;BME280;65956;52.986;17.490;2024-03-23T04:05:09;99247.03;;;6.30;100.00
77027;BME280;65956;52.986;17.490;2024-03-23T04:07:35;99239.45;;;6.30;100.00
77027;BME280;65956;52.986;17.490;2024-03-23T04:10:02;99241.86;;;6.33;100.00
77027;BME280;65956;52.986;17.490;2024-03-23T04:12:33;99234.00;;;6.36;100.00
77027;BME280;65956;52.986;17.490;2024-03-23T04:15:00;99230.89;;;6.39;100.00
77027;BME280;65956;52.986;17.490;2024-03-23T04:17:29;99236.23;;;6.42;100.00
77027;BME280;65956;52.986;17.490;2024-03-23T04:19:58;99238.39;;;6.43;100.00
77027;BME280;65956;52.986;17.490;2024-03-23T04:22:24;99238.25;;;6.45;100.00
77027;BME280;65956;52.986;17.490;2024-03-23T04:24:56;99239.14;;;6.46;100.00
77027;BME280;65956;52.986;17.490;2024-03-23T04:27:23;99236.09;;;6.44;100.00
77027;BME280;65956;52.986;17.490;2024-03-23T04:29:50;99241.13;;;6.36;100.00
77027;BME280;65956;52.986;17.490;2024-03-23T04:32:17;99241.35;;;6.31;100.00
77027;BME280;65956;52.986;17.490;2024-03-23T04:34:44;99239.94;;;6.27;100.00
77027;BME280;65956;52.986;17.490;2024-03-23T04:37:11;99238.05;;;6.23;100.00
77027;BME280;65956;52.986;17.490;2024-03-23T04:39:37;99234.29;;;6.20;100.00
77027;BME280;65956;52.986;17.490;2024-03-23T04:42:05;99227.92;;;6.17;100.00
77027;BME280;65956;52.986;17.490;2024-03-23T04:44:31;99221.36;;;6.17;100.00
77027;BME280;65956;52.986;17.490;2024-03-23T04:46:57;99213.48;;;6.14;100.00
77027;BME280;65956;52.986;17.490;2024-03-23T04:49:24;99208.27;;;6.14;100.00
77027;BME280;65956;52.986;17.490;2024-03-23T04:51:50;99205.67;;;6.14;100.00
77027;BME280;65956;52.986;17.490;2024-03-23T04:54:16;99210.91;;;6.16;100.00
77027;BME280;65956;52.986;17.490;2024-03-23T04:56:42;99214.95;;;6.16;100.00
77027;BME280;65956;52.986;17.490;2024-03-23T04:59:08;99208.80;;;6.17;100.00
77027;BME280;65956;52.986;17.490;2024-03-23T05:01:34;99210.23;;;6.18;100.00
77027;BME280;65956;52.986;17.490;2024-03-23T05:04:02;99201.31;;;6.19;100.00
77027;BME280;65956;52.986;17.490;2024-03-23T05:06:29;99194.77;;;6.19;100.00
77027;BME280;65956;52.986;17.490;2024-03-23T05:08:55;99207.70;;;6.19;100.00
77027;BME280;65956;52.986;17.490;2024-03-23T05:11:21;99201.31;;;6.19;100.00
77027;BME280;65956;52.986;17.490;2024-03-23T05:13:47;99194.52;;;6.19;100.00
77027;BME280;65956;52.986;17.490;2024-03-23T05:16:13;99192.59;;;6.22;100.00
77027;BME280;65956;52.986;17.490;2024-03-23T05:18:39;99180.23;;;6.24;100.00
77027;BME280;65956;52.986;17.490;2024-03-23T05:21:05;99181.13;;;6.26;100.00
77027;BME280;65956;52.986;17.490;2024-03-23T05:23:31;99167.17;;;6.28;100.00
77027;BME280;65956;52.986;17.490;2024-03-23T05:25:57;99165.22;;;6.30;100.00
77027;BME280;65956;52.986;17.490;2024-03-23T05:28:23;99154.85;;;6.34;100.00
77027;BME280;65956;52.986;17.490;2024-03-23T05:30:53;99140.27;;;6.38;100.00
77027;BME280;65956;52.986;17.490;2024-03-23T05:33:20;99139.22;;;6.41;100.00
77027;BME280;65956;52.986;17.490;2024-03-23T05:35:58;99135.94;;;6.44;100.00
77027;BME280;65956;52.986;17.490;2024-03-23T05:38:25;99129.87;;;6.51;100.00
77027;BME280;65956;52.986;17.490;2024-03-23T05:40:58;99113.11;;;6.56;100.00
77027;BME280;65956;52.986;17.490;2024-03-23T05:43:26;99112.73;;;6.64;100.00
77027;BME280;65956;52.986;17.490;2024-03-23T05:45:55;99111.73;;;6.72;100.00
77027;BME280;65956;52.986;17.490;2024-03-23T05:48:21;99133.89;;;6.79;100.00
77027;BME280;65956;52.986;17.490;2024-03-23T05:50:49;99147.86;;;6.76;100.00
77027;BME280;65956;52.986;17.490;2024-03-23T05:53:16;99142.77;;;6.75;100.00
77027;BME280;65956;52.986;17.490;2024-03-23T05:55:43;99133.02;;;6.73;100.00
77027;BME280;65956;52.986;17.490;2024-03-23T05:58:10;99130.10;;;6.73;100.00
77027;BME280;65956;52.986;17.490;2024-03-23T06:00:36;99130.23;;;6.72;100.00
77027;BME280;65956;52.986;17.490;2024-03-23T06:03:02;99123.70;;;6.73;100.00
77027;BME280;65956;52.986;17.490;2024-03-23T06:05:28;99107.35;;;6.76;100.00
77027;BME280;65956;52.986;17.490;2024-03-23T06:07:55;99105.25;;;6.78;100.00
77027;BME280;65956;52.986;17.490;2024-03-23T06:10:21;99105.41;;;6.78;100.00
77027;BME280;65956;52.986;17.490;2024-03-23T06:12:47;99110.55;;;6.79;100.00
77027;BME280;65956;52.986;17.490;2024-03-23T06:15:13;99117.30;;;6.80;100.00
77027;BME280;65956;52.986;17.490;2024-03-23T06:17:39;99123.55;;;6.80;100.00
77027;BME280;65956;52.986;17.490;2024-03-23T06:20:06;99123.92;;;6.79;100.00
77027;BME280;65956;52.986;17.490;2024-03-23T06:22:32;99127.95;;;6.79;100.00
77027;BME280;65956;52.986;17.490;2024-03-23T06:24:59;99131.36;;;6.79;100.00
77027;BME280;65956;52.986;17.490;2024-03-23T06:27:25;99129.38;;;6.79;100.00
77027;BME280;65956;52.986;17.490;2024-03-23T06:29:51;99133.35;;;6.80;100.00
77027;BME280;65956;52.986;17.490;2024-03-23T06:32:18;99133.09;;;6.78;100.00
77027;BME280;65956;52.986;17.490;2024-03-23T06:34:44;99136.80;;;6.77;100.00
77027;BME280;65956;52.986;17.490;2024-03-23T06:37:11;99128.95;;;6.76;100.00
77027;BME280;65956;52.986;17.490;2024-03-23T06:39:38;99130.70;;;6.76;100.00
77027;BME280;65956;52.986;17.490;2024-03-23T06:42:05;99133.73;;;6.74;100.00
77027;BME280;65956;52.986;17.490;2024-03-23T06:44:31;99128.48;;;6.70;100.00
77027;BME280;65956;52.986;17.490;2024-03-23T06:46:57;99126.72;;;6.69;100.00
77027;BME280;65956;52.986;17.490;2024-03-23T06:49:24;99128.66;;;6.67;100.00
77027;BME280;65956;52.986;17.490;2024-03-23T06:51:50;99133.00;;;6.66;100.00
77027;BME280;65956;52.986;17.490;2024-03-23T06:54:17;99125.25;;;6.65;100.00
77027;BME280;65956;52.986;17.490;2024-03-23T06:56:44;99131.03;;;6.67;100.00
77027;BME280;65956;52.986;17.490;2024-03-23T06:59:10;99123.59;;;6.66;100.00
77027;BME280;65956;52.986;17.490;2024-03-23T07:01:36;99124.14;;;6.66;100.00
77027;BME280;65956;52.986;17.490;2024-03-23T07:04:03;99115.55;;;6.67;100.00
77027;BME280;65956;52.986;17.490;2024-03-23T07:06:30;99116.27;;;6.68;100.00
77027;BME280;65956;52.986;17.490;2024-03-23T07:08:57;99115.09;;;6.69;100.00
77027;BME280;65956;52.986;17.490;2024-03-23T07:11:23;99109.61;;;6.73;100.00
77027;BME280;65956;52.986;17.490;2024-03-23T07:13:50;99106.27;;;6.78;100.00
77027;BME280;65956;52.986;17.490;2024-03-23T07:16:17;99095.83;;;6.84;100.00
77027;BME280;65956;52.986;17.490;2024-03-23T07:18:44;99096.17;;;6.86;100.00
77027;BME280;65956;52.986;17.490;2024-03-23T07:21:10;99094.74;;;6.86;100.00
77027;BME280;65956;52.986;17.490;2024-03-23T07:23:36;99093.27;;;6.89;100.00
77027;BME280;65956;52.986;17.490;2024-03-23T07:26:04;99098.00;;;6.88;100.00
77027;BME280;65956;52.986;17.490;2024-03-23T07:28:34;99089.92;;;6.81;100.00
77027;BME280;65956;52.986;17.490;2024-03-23T07:31:09;99086.84;;;6.73;100.00
77027;BME280;65956;52.986;17.490;2024-03-23T07:33:48;99091.53;;;6.64;100.00
77027;BME280;65956;52.986;17.490;2024-03-23T07:36:14;99081.67;;;6.59;100.00
77027;BME280;65956;52.986;17.490;2024-03-23T07:38:41;99078.92;;;6.61;100.00
77027;BME280;65956;52.986;17.490;2024-03-23T07:41:09;99077.48;;;6.60;100.00
77027;BME280;65956;52.986;17.490;2024-03-23T07:43:37;99080.92;;;6.58;100.00
77027;BME280;65956;52.986;17.490;2024-03-23T07:46:04;99078.13;;;6.60;100.00
77027;BME280;65956;52.986;17.490;2024-03-23T07:48:31;99075.62;;;6.63;100.00
77027;BME280;65956;52.986;17.490;2024-03-23T07:51:02;99074.54;;;6.64;100.00
77027;BME280;65956;52.986;17.490;2024-03-23T07:53:29;99076.38;;;6.65;100.00
77027;BME280;65956;52.986;17.490;2024-03-23T07:56:14;99071.41;;;6.61;100.00
77027;BME280;65956;52.986;17.490;2024-03-23T07:58:45;99071.95;;;6.53;100.00
77027;BME280;65956;52.986;17.490;2024-03-23T08:01:12;99065.16;;;6.48;100.00
77027;BME280;65956;52.986;17.490;2024-03-23T08:03:41;99077.49;;;6.48;100.00
77027;BME280;65956;52.986;17.490;2024-03-23T08:06:16;99065.35;;;6.45;100.00
77027;BME280;65956;52.986;17.490;2024-03-23T08:08:44;99054.79;;;6.47;100.00
77027;BME280;65956;52.986;17.490;2024-03-23T08:11:11;99049.71;;;6.52;100.00
77027;BME280;65956;52.986;17.490;2024-03-23T08:13:39;99046.53;;;6.57;100.00
77027;BME280;65956;52.986;17.490;2024-03-23T08:16:06;99044.27;;;6.66;100.00
77027;BME280;65956;52.986;17.490;2024-03-23T08:18:32;99041.94;;;6.69;100.00
77027;BME280;65956;52.986;17.490;2024-03-23T08:21:05;99041.36;;;6.74;100.00
77027;BME280;65956;52.986;17.490;2024-03-23T08:23:34;99034.72;;;6.74;100.00
77027;BME280;65956;52.986;17.490;2024-03-23T08:26:06;99038.09;;;6.64;100.00
77027;BME280;65956;52.986;17.490;2024-03-23T08:28:33;99037.52;;;6.51;100.00
77027;BME280;65956;52.986;17.490;2024-03-23T08:31:04;99039.23;;;6.43;100.00
77027;BME280;65956;52.986;17.490;2024-03-23T08:33:52;99032.92;;;6.37;100.00
77027;BME280;65956;52.986;17.490;2024-03-23T08:36:19;99025.79;;;6.34;100.00
77027;BME280;65956;52.986;17.490;2024-03-23T08:38:45;99015.70;;;6.38;100.00
77027;BME280;65956;52.986;17.490;2024-03-23T08:41:11;99012.27;;;6.42;100.00
77027;BME280;65956;52.986;17.490;2024-03-23T08:43:40;99010.73;;;6.27;100.00
77027;BME280;65956;52.986;17.490;2024-03-23T08:46:11;99011.33;;;6.12;100.00
77027;BME280;65956;52.986;17.490;2024-03-23T08:48:46;99007.94;;;6.02;100.00
77027;BME280;65956;52.986;17.490;2024-03-23T08:51:16;98999.59;;;5.87;100.00
77027;BME280;65956;52.986;17.490;2024-03-23T08:53:43;98992.70;;;5.77;100.00
77027;BME280;65956;52.986;17.490;2024-03-23T08:56:10;98988.25;;;5.75;100.00
77027;BME280;65956;52.986;17.490;2024-03-23T08:58:38;98988.92;;;5.66;100.00
77027;BME280;65956;52.986;17.490;2024-03-23T09:03:31;98991.48;;;5.54;100.00
77027;BME280;65956;52.986;17.490;2024-03-23T09:05:57;98993.72;;;5.45;100.00
77027;BME280;65956;52.986;17.490;2024-03-23T09:08:24;98986.30;;;5.40;100.00
77027;BME280;65956;52.986;17.490;2024-03-23T09:10:52;98982.08;;;5.32;100.00
77027;BME280;65956;52.986;17.490;2024-03-23T09:13:18;98968.77;;;5.29;100.00
77027;BME280;65956;52.986;17.490;2024-03-23T09:15:49;98965.51;;;5.18;100.00
77027;BME280;65956;52.986;17.490;2024-03-23T09:18:15;98966.02;;;5.20;100.00
77027;BME280;65956;52.986;17.490;2024-03-23T09:20:42;98963.04;;;5.21;100.00
77027;BME280;65956;52.986;17.490;2024-03-23T09:23:08;98952.80;;;5.23;100.00
77027;BME280;65956;52.986;17.490;2024-03-23T09:25:38;98958.70;;;5.26;100.00
77027;BME280;65956;52.986;17.490;2024-03-23T09:28:05;98952.19;;;5.33;100.00
77027;BME280;65956;52.986;17.490;2024-03-23T09:30:33;98946.39;;;5.31;100.00
77027;BME280;65956;52.986;17.490;2024-03-23T09:33:02;98947.22;;;5.24;100.00
77027;BME280;65956;52.986;17.490;2024-03-23T09:35:28;98948.67;;;5.16;100.00
77027;BME280;65956;52.986;17.490;2024-03-23T09:37:55;98940.73;;;5.13;100.00
77027;BME280;65956;52.986;17.490;2024-03-23T09:40:21;98944.23;;;5.10;100.00
77027;BME280;65956;52.986;17.490;2024-03-23T09:42:50;98941.02;;;5.07;100.00
77027;BME280;65956;52.986;17.490;2024-03-23T09:45:26;98932.30;;;5.04;100.00
77027;BME280;65956;52.986;17.490;2024-03-23T09:47:52;98924.41;;;5.09;100.00
77027;BME280;65956;52.986;17.490;2024-03-23T09:50:18;98924.28;;;5.15;100.00
77027;BME280;65956;52.986;17.490;2024-03-23T09:52:48;98918.69;;;5.21;100.00
77027;BME280;65956;52.986;17.490;2024-03-23T09:55:15;98912.84;;;5.25;100.00
77027;BME280;65956;52.986;17.490;2024-03-23T09:57:41;98915.83;;;5.29;100.00
77027;BME280;65956;52.986;17.490;2024-03-23T10:00:08;98921.68;;;5.31;100.00
77027;BME280;65956;52.986;17.490;2024-03-23T10:02:35;98920.08;;;5.39;100.00
77027;BME280;65956;52.986;17.490;2024-03-23T10:05:02;98924.21;;;5.46;100.00
77027;BME280;65956;52.986;17.490;2024-03-23T10:07:28;98928.80;;;5.47;100.00
77027;BME280;65956;52.986;17.490;2024-03-23T10:09:55;98929.17;;;5.52;100.00
77027;BME280;65956;52.986;17.490;2024-03-23T10:12:23;98924.82;;;5.51;100.00
77027;BME280;65956;52.986;17.490;2024-03-23T10:14:50;98916.64;;;5.48;100.00
77027;BME280;65956;52.986;17.490;2024-03-23T10:19:45;98907.03;;;5.48;100.00
77027;BME280;65956;52.986;17.490;2024-03-23T10:22:14;98903.41;;;5.49;100.00
77027;BME280;65956;52.986;17.490;2024-03-23T10:24:41;98907.17;;;5.54;100.00
77027;BME280;65956;52.986;17.490;2024-03-23T10:27:09;98895.23;;;5.58;100.00
77027;BME280;65956;52.986;17.490;2024-03-23T10:29:35;98888.46;;;5.64;100.00
77027;BME280;65956;52.986;17.490;2024-03-23T10:32:08;98890.86;;;5.72;100.00
77027;BME280;65956;52.986;17.490;2024-03-23T10:34:36;98887.05;;;5.82;100.00
77027;BME280;65956;52.986;17.490;2024-03-23T10:37:03;98885.19;;;6.02;100.00
77027;BME280;65956;52.986;17.490;2024-03-23T10:39:34;98886.55;;;6.16;100.00
77027;BME280;65956;52.986;17.490;2024-03-23T10:42:08;98880.02;;;6.20;100.00
77027;BME280;65956;52.986;17.490;2024-03-23T10:44:38;98874.79;;;6.25;100.00
77027;BME280;65956;52.986;17.490;2024-03-23T10:47:05;98863.10;;;6.33;100.00
77027;BME280;65956;52.986;17.490;2024-03-23T10:49:35;98861.65;;;6.38;100.00
77027;BME280;65956;52.986;17.490;2024-03-23T10:52:05;98854.48;;;6.42;100.00
77027;BME280;65956;52.986;17.490;2024-03-23T10:54:32;98854.56;;;6.34;100.00
77027;BME280;65956;52.986;17.490;2024-03-23T10:57:11;98855.83;;;6.25;100.00
77027;BME280;65956;52.986;17.490;2024-03-23T10:59:39;98857.58;;;6.20;100.00
77027;BME280;65956;52.986;17.490;2024-03-23T11:02:07;98851.14;;;6.09;100.00
77027;BME280;65956;52.986;17.490;2024-03-23T11:04:44;98842.91;;;6.09;100.00
77027;BME280;65956;52.986;17.490;2024-03-23T11:09:53;98836.52;;;6.03;100.00
77027;BME280;65956;52.986;17.490;2024-03-23T11:14:46;98847.19;;;5.89;100.00
77027;BME280;65956;52.986;17.490;2024-03-23T11:17:21;98843.96;;;5.85;100.00
77027;BME280;65956;52.986;17.490;2024-03-23T11:20:08;98837.10;;;5.80;100.00
77027;BME280;65956;52.986;17.490;2024-03-23T11:25:22;98841.33;;;5.71;100.00
77027;BME280;65956;52.986;17.490;2024-03-23T11:28:11;98841.36;;;5.66;100.00
77027;BME280;65956;52.986;17.490;2024-03-23T11:30:37;98841.52;;;5.60;100.00
77027;BME280;65956;52.986;17.490;2024-03-23T11:33:07;98837.76;;;5.57;100.00
77027;BME280;65956;52.986;17.490;2024-03-23T11:35:38;98835.23;;;5.52;100.00
77027;BME280;65956;52.986;17.490;2024-03-23T11:40:43;98825.02;;;5.37;100.00
77027;BME280;65956;52.986;17.490;2024-03-23T11:43:14;98808.86;;;5.37;100.00
77027;BME280;65956;52.986;17.490;2024-03-23T11:48:12;98780.47;;;5.59;100.00
77027;BME280;65956;52.986;17.490;2024-03-23T11:50:43;98771.29;;;5.77;100.00
77027;BME280;65956;52.986;17.490;2024-03-23T11:53:16;98760.98;;;5.99;100.00
77027;BME280;65956;52.986;17.490;2024-03-23T11:55:50;98757.64;;;6.14;100.00
77027;BME280;65956;52.986;17.490;2024-03-23T11:58:18;98749.71;;;6.19;100.00
77027;BME280;65956;52.986;17.490;2024-03-23T12:01:05;98752.05;;;6.16;100.00
77027;BME280;65956;52.986;17.490;2024-03-23T12:03:36;98754.52;;;6.09;100.00
77027;BME280;65956;52.986;17.490;2024-03-23T12:06:04;98758.45;;;5.99;100.00
77027;BME280;65956;52.986;17.490;2024-03-23T12:08:32;98771.23;;;5.84;100.00
77027;BME280;65956;52.986;17.490;2024-03-23T12:11:16;98771.39;;;5.66;100.00
77027;BME280;65956;52.986;17.490;2024-03-23T12:13:44;98764.33;;;5.36;100.00
77027;BME280;65956;52.986;17.490;2024-03-23T12:16:17;98759.52;;;5.18;100.00
77027;BME280;65956;52.986;17.490;2024-03-23T12:18:44;98750.80;;;5.04;100.00
77027;BME280;65956;52.986;17.490;2024-03-23T12:21:11;98721.63;;;4.98;100.00
77027;BME280;65956;52.986;17.490;2024-03-23T12:23:41;98716.85;;;4.95;100.00
77027;BME280;65956;52.986;17.490;2024-03-23T12:26:10;98716.28;;;4.88;100.00
77027;BME280;65956;52.986;17.490;2024-03-23T12:28:38;98721.51;;;4.83;100.00
77027;BME280;65956;52.986;17.490;2024-03-23T12:31:04;98727.20;;;4.80;100.00
77027;BME280;65956;52.986;17.490;2024-03-23T12:33:31;98720.73;;;4.78;100.00
77027;BME280;65956;52.986;17.490;2024-03-23T12:35:57;98713.91;;;4.76;100.00
77027;BME280;65956;52.986;17.490;2024-03-23T12:38:23;98708.95;;;4.76;100.00
77027;BME280;65956;52.986;17.490;2024-03-23T12:40:50;98699.56;;;4.76;100.00
77027;BME280;65956;52.986;17.490;2024-03-23T12:43:17;98697.70;;;4.78;100.00
77027;BME280;65956;52.986;17.490;2024-03-23T12:45:46;98695.30;;;4.81;100.00
77027;BME280;65956;52.986;17.490;2024-03-23T12:48:13;98671.45;;;4.85;100.00
77027;BME280;65956;52.986;17.490;2024-03-23T12:50:39;98657.30;;;4.93;100.00
77027;BME280;65956;52.986;17.490;2024-03-23T12:53:05;98659.96;;;4.98;100.00
77027;BME280;65956;52.986;17.490;2024-03-23T12:55:31;98669.39;;;4.96;100.00
77027;BME280;65956;52.986;17.490;2024-03-23T12:57:57;98678.24;;;4.97;100.00
77027;BME280;65956;52.986;17.490;2024-03-23T13:00:23;98684.52;;;4.94;100.00
77027;BME280;65956;52.986;17.490;2024-03-23T13:02:50;98685.64;;;4.89;100.00
77027;BME280;65956;52.986;17.490;2024-03-23T13:05:16;98680.05;;;4.84;100.00
77027;BME280;65956;52.986;17.490;2024-03-23T13:07:42;98680.95;;;4.81;100.00
77027;BME280;65956;52.986;17.490;2024-03-23T13:10:08;98676.01;;;4.77;100.00
77027;BME280;65956;52.986;17.490;2024-03-23T13:12:34;98678.73;;;4.74;100.00
77027;BME280;65956;52.986;17.490;2024-03-23T13:15:01;98680.88;;;4.70;100.00
77027;BME280;65956;52.986;17.490;2024-03-23T13:17:27;98685.73;;;4.68;100.00
77027;BME280;65956;52.986;17.490;2024-03-23T13:19:54;98692.49;;;4.66;100.00
77027;BME280;65956;52.986;17.490;2024-03-23T13:22:22;98709.73;;;4.58;100.00
77027;BME280;65956;52.986;17.490;2024-03-23T13:24:48;98711.60;;;4.47;100.00
77027;BME280;65956;52.986;17.490;2024-03-23T13:27:14;98721.18;;;4.35;100.00
77027;BME280;65956;52.986;17.490;2024-03-23T13:29:40;98726.96;;;4.28;100.00
77027;BME280;65956;52.986;17.490;2024-03-23T13:32:07;98732.68;;;4.16;100.00
77027;BME280;65956;52.986;17.490;2024-03-23T13:34:33;98739.43;;;4.05;100.00
77027;BME280;65956;52.986;17.490;2024-03-23T13:37:01;98744.05;;;3.99;100.00
77027;BME280;65956;52.986;17.490;2024-03-23T13:39:27;98750.14;;;3.88;100.00
77027;BME280;65956;52.986;17.490;2024-03-23T13:41:53;98759.40;;;3.78;100.00
77027;BME280;65956;52.986;17.490;2024-03-23T13:44:22;98769.80;;;3.70;100.00
77027;BME280;65956;52.986;17.490;2024-03-23T13:46:49;98784.35;;;3.64;100.00
77027;BME280;65956;52.986;17.490;2024-03-23T13:49:29;98793.25;;;3.66;100.00
77027;BME280;65956;52.986;17.490;2024-03-23T13:51:57;98803.06;;;3.69;100.00
77027;BME280;65956;52.986;17.490;2024-03-23T13:54:25;98808.09;;;3.72;100.00
77027;BME280;65956;52.986;17.490;2024-03-23T13:56:52;98795.82;;;3.69;100.00
77027;BME280;65956;52.986;17.490;2024-03-23T13:59:18;98785.11;;;3.63;100.00
77027;BME280;65956;52.986;17.490;2024-03-23T14:01:45;98793.61;;;3.60;100.00
77027;BME280;65956;52.986;17.490;2024-03-23T14:04:14;98794.81;;;3.58;100.00
77027;BME280;65956;52.986;17.490;2024-03-23T14:06:43;98787.89;;;3.58;100.00
77027;BME280;65956;52.986;17.490;2024-03-23T14:09:12;98778.48;;;3.59;100.00
77027;BME280;65956;52.986;17.490;2024-03-23T14:11:40;98774.79;;;3.63;100.00
77027;BME280;65956;52.986;17.490;2024-03-23T14:14:10;98771.81;;;3.68;100.00
77027;BME280;65956;52.986;17.490;2024-03-23T14:16:36;98783.16;;;3.69;100.00
77027;BME280;65956;52.986;17.490;2024-03-23T14:19:02;98790.67;;;3.63;100.00
77027;BME280;65956;52.986;17.490;2024-03-23T14:21:31;98798.72;;;3.56;100.00
77027;BME280;65956;52.986;17.490;2024-03-23T14:23:58;98806.81;;;3.47;100.00
77027;BME280;65956;52.986;17.490;2024-03-23T14:26:24;98807.82;;;3.39;100.00
77027;BME280;65956;52.986;17.490;2024-03-23T14:28:51;98852.41;;;3.35;100.00
77027;BME280;65956;52.986;17.490;2024-03-23T14:31:17;98875.26;;;3.37;100.00
77027;BME280;65956;52.986;17.490;2024-03-23T14:33:44;98873.30;;;3.33;100.00
77027;BME280;65956;52.986;17.490;2024-03-23T14:36:13;98860.94;;;3.30;100.00
77027;BME280;65956;52.986;17.490;2024-03-23T14:38:40;98878.06;;;3.26;100.00
77027;BME280;65956;52.986;17.490;2024-03-23T14:41:06;98880.20;;;3.23;100.00
77027;BME280;65956;52.986;17.490;2024-03-23T14:43:32;98862.50;;;3.22;100.00
77027;BME280;65956;52.986;17.490;2024-03-23T14:46:15;98858.08;;;3.22;100.00
77027;BME280;65956;52.986;17.490;2024-03-23T14:48:43;98862.73;;;3.22;100.00
77027;BME280;65956;52.986;17.490;2024-03-23T14:51:10;98860.92;;;3.18;100.00
77027;BME280;65956;52.986;17.490;2024-03-23T14:53:38;98862.83;;;3.12;100.00
77027;BME280;65956;52.986;17.490;2024-03-23T14:56:08;98870.52;;;3.09;100.00
77027;BME280;65956;52.986;17.490;2024-03-23T14:58:36;98864.05;;;3.07;100.00
77027;BME280;65956;52.986;17.490;2024-03-23T15:01:06;98871.44;;;3.07;100.00
77027;BME280;65956;52.986;17.490;2024-03-23T15:03:39;98881.72;;;3.10;100.00
77027;BME280;65956;52.986;17.490;2024-03-23T15:06:06;98882.88;;;3.16;100.00
77027;BME280;65956;52.986;17.490;2024-03-23T15:08:32;98887.10;;;3.22;100.00
77027;BME280;65956;52.986;17.490;2024-03-23T15:10:59;98889.40;;;3.25;100.00
77027;BME280;65956;52.986;17.490;2024-03-23T15:13:26;98907.80;;;3.29;100.00
77027;BME280;65956;52.986;17.490;2024-03-23T15:15:52;98910.58;;;3.30;100.00
77027;BME280;65956;52.986;17.490;2024-03-23T15:18:18;98914.70;;;3.28;100.00
77027;BME280;65956;52.986;17.490;2024-03-23T15:20:55;98928.05;;;3.31;100.00
77027;BME280;65956;52.986;17.490;2024-03-23T15:23:22;98941.43;;;3.34;100.00
77027;BME280;65956;52.986;17.490;2024-03-23T15:26:00;98945.55;;;3.36;100.00
77027;BME280;65956;52.986;17.490;2024-03-23T15:28:27;98954.95;;;3.41;100.00
77027;BME280;65956;52.986;17.490;2024-03-23T15:31:04;98966.25;;;3.42;100.00
77027;BME280;65956;52.986;17.490;2024-03-23T15:33:30;98971.30;;;3.40;100.00
77027;BME280;65956;52.986;17.490;2024-03-23T15:36:03;98976.46;;;3.36;100.00
77027;BME280;65956;52.986;17.490;2024-03-23T15:38:31;98991.64;;;3.32;100.00
77027;BME280;65956;52.986;17.490;2024-03-23T15:40:58;98991.45;;;3.27;100.00
77027;BME280;65956;52.986;17.490;2024-03-23T15:43:25;98978.10;;;3.22;100.00
77027;BME280;65956;52.986;17.490;2024-03-23T15:46:01;98971.36;;;3.17;100.00
77027;BME280;65956;52.986;17.490;2024-03-23T15:48:31;98966.79;;;3.10;100.00
77027;BME280;65956;52.986;17.490;2024-03-23T15:51:02;98970.64;;;3.00;100.00
77027;BME280;65956;52.986;17.490;2024-03-23T15:53:31;98971.90;;;2.94;100.00
77027;BME280;65956;52.986;17.490;2024-03-23T15:55:59;98980.69;;;2.94;100.00
77027;BME280;65956;52.986;17.490;2024-03-23T15:58:26;98996.02;;;2.94;100.00
77027;BME280;65956;52.986;17.490;2024-03-23T16:01:09;98999.48;;;2.94;100.00
77027;BME280;65956;52.986;17.490;2024-03-23T16:03:37;99022.88;;;2.95;100.00
77027;BME280;65956;52.986;17.490;2024-03-23T16:06:04;99041.33;;;2.95;100.00
77027;BME280;65956;52.986;17.490;2024-03-23T16:08:31;99039.84;;;2.95;100.00
77027;BME280;65956;52.986;17.490;2024-03-23T16:13:28;99044.96;;;2.92;100.00
77027;BME280;65956;52.986;17.490;2024-03-23T16:15:58;99029.23;;;2.89;100.00